sensor_id;sensor_type;location;lat;lon;timestamp;P1;durP1;ratioP1;P2;durP2;ratioP2
38529;SDS011;24301;54.332;48.386;2022-10-30T00:00:26;4.03;;;2.80;;
38529;SDS011;24301;54.332;48.386;2022-10-30T00:02:52;4.47;;;3.37;;
38529;SDS011;24301;54.332;48.386;2022-10-30T00:05:18;5.83;;;3.93;;
38529;SDS011;24301;54.332;48.386;2022-10-30T00:07:48;5.23;;;3.57;;
38529;SDS011;24301;54.332;48.386;2022-10-30T00:10:15;4.97;;;4.00;;
38529;SDS011;24301;54.332;48.386;2022-10-30T00:12:42;7.47;;;5.13;;
38529;SDS011;24301;54.332;48.386;2022-10-30T00:15:09;6.53;;;4.57;;
38529;SDS011;24301;54.332;48.386;2022-10-30T00:17:36;6.13;;;4.40;;
38529;SDS011;24301;54.332;48.386;2022-10-30T00:20:02;6.70;;;5.17;;
38529;SDS011;24301;54.332;48.386;2022-10-30T00:22:29;7.80;;;4.77;;
38529;SDS011;24301;54.332;48.386;2022-10-30T00:24:55;6.67;;;4.30;;
38529;SDS011;24301;54.332;48.386;2022-10-30T00:27:20;6.40;;;3.57;;
38529;SDS011;24301;54.332;48.386;2022-10-30T00:29:46;5.20;;;3.53;;
38529;SDS011;24301;54.332;48.386;2022-10-30T00:32:14;5.20;;;3.63;;
38529;SDS011;24301;54.332;48.386;2022-10-30T00:34:41;6.47;;;3.20;;
38529;SDS011;24301;54.332;48.386;2022-10-30T00:37:08;4.30;;;3.50;;
38529;SDS011;24301;54.332;48.386;2022-10-30T00:39:33;5.20;;;3.73;;
38529;SDS011;24301;54.332;48.386;2022-10-30T00:41:59;5.03;;;4.07;;
38529;SDS011;24301;54.332;48.386;2022-10-30T00:47:27;5.23;;;3.97;;
38529;SDS011;24301;54.332;48.386;2022-10-30T00:50:00;4.53;;;3.33;;
38529;SDS011;24301;54.332;48.386;2022-10-30T00:52:32;4.23;;;3.37;;
38529;SDS011;24301;54.332;48.386;2022-10-30T00:55:01;3.57;;;2.67;;
38529;SDS011;24301;54.332;48.386;2022-10-30T00:57:32;5.60;;;4.10;;
38529;SDS011;24301;54.332;48.386;2022-10-30T00:59:59;4.20;;;2.90;;
38529;SDS011;24301;54.332;48.386;2022-10-30T01:02:26;5.33;;;4.57;;
38529;SDS011;24301;54.332;48.386;2022-10-30T01:04:52;3.97;;;2.93;;
38529;SDS011;24301;54.332;48.386;2022-10-30T01:07:19;4.90;;;3.00;;
38529;SDS011;24301;54.332;48.386;2022-10-30T01:09:45;4.87;;;3.47;;
38529;SDS011;24301;54.332;48.386;2022-10-30T01:12:12;4.63;;;3.73;;
38529;SDS011;24301;54.332;48.386;2022-10-30T01:14:40;5.00;;;3.43;;
38529;SDS011;24301;54.332;48.386;2022-10-30T01:25:37;4.10;;;3.07;;
38529;SDS011;24301;54.332;48.386;2022-10-30T01:31:27;4.40;;;3.63;;
38529;SDS011;24301;54.332;48.386;2022-10-30T01:39:41;4.77;;;3.00;;
38529;SDS011;24301;54.332;48.386;2022-10-30T01:42:08;4.20;;;2.87;;
38529;SDS011;24301;54.332;48.386;2022-10-30T01:44:35;3.77;;;3.20;;
38529;SDS011;24301;54.332;48.386;2022-10-30T01:53:03;4.40;;;3.27;;
38529;SDS011;24301;54.332;48.386;2022-10-30T01:55:47;5.43;;;3.90;;
38529;SDS011;24301;54.332;48.386;2022-10-30T02:01:02;4.80;;;3.77;;
38529;SDS011;24301;54.332;48.386;2022-10-30T02:03:29;5.63;;;4.10;;
38529;SDS011;24301;54.332;48.386;2022-10-30T02:05:55;6.73;;;3.70;;
38529;SDS011;24301;54.332;48.386;2022-10-30T02:08:22;5.60;;;3.60;;
38529;SDS011;24301;54.332;48.386;2022-10-30T02:10:50;5.10;;;3.80;;
38529;SDS011;24301;54.332;48.386;2022-10-30T02:13:27;4.67;;;3.70;;
38529;SDS011;24301;54.332;48.386;2022-10-30T02:15:53;5.27;;;3.20;;
38529;SDS011;24301;54.332;48.386;2022-10-30T02:18:20;6.00;;;4.17;;
38529;SDS011;24301;54.332;48.386;2022-10-30T02:20:46;5.80;;;3.77;;
38529;SDS011;24301;54.332;48.386;2022-10-30T02:23:12;7.00;;;4.13;;
38529;SDS011;24301;54.332;48.386;2022-10-30T02:25:44;7.27;;;4.70;;
38529;SDS011;24301;54.332;48.386;2022-10-30T02:28:10;5.87;;;4.83;;
38529;SDS011;24301;54.332;48.386;2022-10-30T02:30:36;6.27;;;4.43;;
38529;SDS011;24301;54.332;48.386;2022-10-30T02:33:03;5.93;;;4.37;;
38529;SDS011;24301;54.332;48.386;2022-10-30T02:35:29;6.90;;;5.07;;
38529;SDS011;24301;54.332;48.386;2022-10-30T02:37:55;7.13;;;4.57;;
38529;SDS011;24301;54.332;48.386;2022-10-30T02:40:21;6.67;;;4.80;;
38529;SDS011;24301;54.332;48.386;2022-10-30T02:42:53;6.13;;;4.67;;
38529;SDS011;24301;54.332;48.386;2022-10-30T02:45:20;5.87;;;3.90;;
38529;SDS011;24301;54.332;48.386;2022-10-30T02:47:46;6.60;;;5.13;;
38529;SDS011;24301;54.332;48.386;2022-10-30T02:50:12;7.57;;;5.00;;
38529;SDS011;24301;54.332;48.386;2022-10-30T02:52:39;7.47;;;5.30;;
38529;SDS011;24301;54.332;48.386;2022-10-30T02:55:07;7.37;;;4.93;;
38529;SDS011;24301;54.332;48.386;2022-10-30T02:57:34;6.63;;;4.90;;
38529;SDS011;24301;54.332;48.386;2022-10-30T03:00:00;8.20;;;5.27;;
38529;SDS011;24301;54.332;48.386;2022-10-30T03:02:26;6.50;;;4.90;;
38529;SDS011;24301;54.332;48.386;2022-10-30T03:04:52;7.27;;;4.90;;
38529;SDS011;24301;54.332;48.386;2022-10-30T03:07:17;5.67;;;4.37;;
38529;SDS011;24301;54.332;48.386;2022-10-30T03:09:43;7.00;;;5.40;;
38529;SDS011;24301;54.332;48.386;2022-10-30T03:12:09;7.07;;;5.53;;
38529;SDS011;24301;54.332;48.386;2022-10-30T03:14:35;6.60;;;5.20;;
38529;SDS011;24301;54.332;48.386;2022-10-30T03:17:02;6.17;;;4.43;;
38529;SDS011;24301;54.332;48.386;2022-10-30T03:19:28;6.33;;;5.03;;
38529;SDS011;24301;54.332;48.386;2022-10-30T03:21:54;5.30;;;3.93;;
38529;SDS011;24301;54.332;48.386;2022-10-30T03:24:20;4.97;;;3.40;;
38529;SDS011;24301;54.332;48.386;2022-10-30T03:26:46;6.20;;;4.23;;
38529;SDS011;24301;54.332;48.386;2022-10-30T03:29:12;5.07;;;4.07;;
38529;SDS011;24301;54.332;48.386;2022-10-30T03:31:38;5.47;;;3.67;;
38529;SDS011;24301;54.332;48.386;2022-10-30T03:34:12;5.90;;;4.57;;
38529;SDS011;24301;54.332;48.386;2022-10-30T03:36:40;6.00;;;4.40;;
38529;SDS011;24301;54.332;48.386;2022-10-30T03:39:06;7.07;;;5.27;;
38529;SDS011;24301;54.332;48.386;2022-10-30T03:41:34;6.87;;;5.33;;
38529;SDS011;24301;54.332;48.386;2022-10-30T03:43:59;6.13;;;4.37;;
38529;SDS011;24301;54.332;48.386;2022-10-30T03:46:26;7.73;;;5.60;;
38529;SDS011;24301;54.332;48.386;2022-10-30T03:49:00;5.87;;;3.97;;
38529;SDS011;24301;54.332;48.386;2022-10-30T03:51:26;6.47;;;4.63;;
38529;SDS011;24301;54.332;48.386;2022-10-30T03:53:52;4.97;;;3.80;;
38529;SDS011;24301;54.332;48.386;2022-10-30T03:56:18;6.83;;;5.00;;
38529;SDS011;24301;54.332;48.386;2022-10-30T03:58:51;5.95;;;4.80;;
38529;SDS011;24301;54.332;48.386;2022-10-30T04:01:20;5.67;;;4.47;;
38529;SDS011;24301;54.332;48.386;2022-10-30T04:03:52;5.93;;;4.43;;
38529;SDS011;24301;54.332;48.386;2022-10-30T04:06:18;6.20;;;4.43;;
38529;SDS011;24301;54.332;48.386;2022-10-30T04:08:44;7.57;;;4.73;;
38529;SDS011;24301;54.332;48.386;2022-10-30T04:11:10;5.73;;;4.60;;
38529;SDS011;24301;54.332;48.386;2022-10-30T04:13:36;4.77;;;3.77;;
38529;SDS011;24301;54.332;48.386;2022-10-30T04:16:02;6.60;;;4.33;;
38529;SDS011;24301;54.332;48.386;2022-10-30T04:18:31;5.53;;;3.97;;
38529;SDS011;24301;54.332;48.386;2022-10-30T04:20:58;6.10;;;4.03;;
38529;SDS011;24301;54.332;48.386;2022-10-30T04:23:24;5.17;;;3.73;;
38529;SDS011;24301;54.332;48.386;2022-10-30T04:25:50;5.47;;;3.90;;
38529;SDS011;24301;54.332;48.386;2022-10-30T04:28:17;4.60;;;3.60;;
38529;SDS011;24301;54.332;48.386;2022-10-30T04:30:43;5.67;;;4.63;;
38529;SDS011;24301;54.332;48.386;2022-10-30T04:33:10;5.33;;;4.07;;
38529;SDS011;24301;54.332;48.386;2022-10-30T04:35:39;5.90;;;4.60;;
38529;SDS011;24301;54.332;48.386;2022-10-30T04:38:15;5.23;;;3.73;;
38529;SDS011;24301;54.332;48.386;2022-10-30T04:40:43;5.50;;;4.30;;
38529;SDS011;24301;54.332;48.386;2022-10-30T04:43:10;3.97;;;3.17;;
38529;SDS011;24301;54.332;48.386;2022-10-30T04:45:38;6.43;;;4.40;;
38529;SDS011;24301;54.332;48.386;2022-10-30T04:48:06;3.47;;;2.70;;
38529;SDS011;24301;54.332;48.386;2022-10-30T04:50:36;7.50;;;3.70;;
38529;SDS011;24301;54.332;48.386;2022-10-30T04:53:08;5.57;;;3.30;;
38529;SDS011;24301;54.332;48.386;2022-10-30T04:55:41;3.70;;;3.27;;
38529;SDS011;24301;54.332;48.386;2022-10-30T04:58:09;4.63;;;2.90;;
38529;SDS011;24301;54.332;48.386;2022-10-30T05:00:38;4.47;;;3.50;;
38529;SDS011;24301;54.332;48.386;2022-10-30T05:05:43;5.27;;;3.83;;
38529;SDS011;24301;54.332;48.386;2022-10-30T05:08:09;5.30;;;4.00;;
38529;SDS011;24301;54.332;48.386;2022-10-30T05:10:37;4.83;;;3.60;;
38529;SDS011;24301;54.332;48.386;2022-10-30T05:13:04;5.67;;;3.83;;
38529;SDS011;24301;54.332;48.386;2022-10-30T05:15:30;5.13;;;3.83;;
38529;SDS011;24301;54.332;48.386;2022-10-30T05:17:56;5.77;;;3.97;;
38529;SDS011;24301;54.332;48.386;2022-10-30T05:20:22;7.60;;;5.10;;
38529;SDS011;24301;54.332;48.386;2022-10-30T05:22:55;6.70;;;4.57;;
38529;SDS011;24301;54.332;48.386;2022-10-30T05:27:49;5.70;;;4.37;;
38529;SDS011;24301;54.332;48.386;2022-10-30T05:30:17;5.77;;;4.17;;
38529;SDS011;24301;54.332;48.386;2022-10-30T05:32:43;5.30;;;3.47;;
38529;SDS011;24301;54.332;48.386;2022-10-30T05:35:09;5.63;;;4.40;;
38529;SDS011;24301;54.332;48.386;2022-10-30T05:37:35;5.63;;;4.57;;
38529;SDS011;24301;54.332;48.386;2022-10-30T05:40:01;7.17;;;5.20;;
38529;SDS011;24301;54.332;48.386;2022-10-30T05:42:28;7.87;;;6.03;;
38529;SDS011;24301;54.332;48.386;2022-10-30T05:44:57;5.37;;;4.20;;
38529;SDS011;24301;54.332;48.386;2022-10-30T05:47:24;7.33;;;5.13;;
38529;SDS011;24301;54.332;48.386;2022-10-30T05:49:53;4.70;;;3.50;;
38529;SDS011;24301;54.332;48.386;2022-10-30T05:52:21;6.40;;;4.20;;
38529;SDS011;24301;54.332;48.386;2022-10-30T05:54:48;6.10;;;4.37;;
38529;SDS011;24301;54.332;48.386;2022-10-30T05:57:22;6.25;;;4.35;;
38529;SDS011;24301;54.332;48.386;2022-10-30T05:59:48;5.47;;;3.83;;
38529;SDS011;24301;54.332;48.386;2022-10-30T06:02:15;5.03;;;3.87;;
38529;SDS011;24301;54.332;48.386;2022-10-30T06:04:41;5.73;;;4.47;;
38529;SDS011;24301;54.332;48.386;2022-10-30T06:07:11;4.77;;;3.50;;
38529;SDS011;24301;54.332;48.386;2022-10-30T06:09:37;5.67;;;4.30;;
38529;SDS011;24301;54.332;48.386;2022-10-30T06:12:21;4.10;;;3.07;;
38529;SDS011;24301;54.332;48.386;2022-10-30T06:15:16;5.10;;;2.90;;
38529;SDS011;24301;54.332;48.386;2022-10-30T06:17:42;4.53;;;3.57;;
38529;SDS011;24301;54.332;48.386;2022-10-30T06:20:20;3.87;;;3.00;;
38529;SDS011;24301;54.332;48.386;2022-10-30T06:23:01;3.90;;;2.90;;
38529;SDS011;24301;54.332;48.386;2022-10-30T06:25:46;4.70;;;3.37;;
38529;SDS011;24301;54.332;48.386;2022-10-30T06:28:28;4.77;;;3.20;;
38529;SDS011;24301;54.332;48.386;2022-10-30T06:30:54;3.20;;;2.47;;
38529;SDS011;24301;54.332;48.386;2022-10-30T06:33:20;3.87;;;2.47;;
38529;SDS011;24301;54.332;48.386;2022-10-30T06:35:49;3.77;;;2.80;;
38529;SDS011;24301;54.332;48.386;2022-10-30T06:38:16;4.70;;;3.23;;
38529;SDS011;24301;54.332;48.386;2022-10-30T06:40:43;3.10;;;2.40;;
38529;SDS011;24301;54.332;48.386;2022-10-30T06:43:34;2.90;;;2.10;;
38529;SDS011;24301;54.332;48.386;2022-10-30T06:46:04;3.77;;;2.33;;
38529;SDS011;24301;54.332;48.386;2022-10-30T06:48:32;2.60;;;2.13;;
38529;SDS011;24301;54.332;48.386;2022-10-30T06:50:58;2.80;;;2.37;;
38529;SDS011;24301;54.332;48.386;2022-10-30T06:53:27;2.00;;;1.80;;
38529;SDS011;24301;54.332;48.386;2022-10-30T06:55:59;2.97;;;2.17;;
38529;SDS011;24301;54.332;48.386;2022-10-30T06:58:42;3.25;;;1.75;;
38529;SDS011;24301;54.332;48.386;2022-10-30T07:01:30;2.27;;;1.80;;
38529;SDS011;24301;54.332;48.386;2022-10-30T07:04:01;2.17;;;1.80;;
38529;SDS011;24301;54.332;48.386;2022-10-30T07:06:27;2.30;;;1.93;;
38529;SDS011;24301;54.332;48.386;2022-10-30T07:08:53;2.40;;;1.90;;
38529;SDS011;24301;54.332;48.386;2022-10-30T07:11:19;1.90;;;1.70;;
38529;SDS011;24301;54.332;48.386;2022-10-30T07:14:14;1.90;;;1.50;;
38529;SDS011;24301;54.332;48.386;2022-10-30T07:16:55;1.30;;;1.20;;
38529;SDS011;24301;54.332;48.386;2022-10-30T07:19:22;1.63;;;1.43;;
38529;SDS011;24301;54.332;48.386;2022-10-30T07:21:48;1.50;;;1.40;;
38529;SDS011;24301;54.332;48.386;2022-10-30T07:24:15;1.40;;;1.30;;
38529;SDS011;24301;54.332;48.386;2022-10-30T07:26:54;1.50;;;1.37;;
38529;SDS011;24301;54.332;48.386;2022-10-30T07:29:31;1.27;;;1.13;;
38529;SDS011;24301;54.332;48.386;2022-10-30T07:34:59;1.52;;;1.30;;
38529;SDS011;24301;54.332;48.386;2022-10-30T07:37:50;1.03;;;1.00;;
38529;SDS011;24301;54.332;48.386;2022-10-30T07:40:17;1.00;;;1.00;;
38529;SDS011;24301;54.332;48.386;2022-10-30T07:42:52;12.20;;;9.30;;
38529;SDS011;24301;54.332;48.386;2022-10-30T07:45:39;1.13;;;1.03;;
38529;SDS011;24301;54.332;48.386;2022-10-30T07:48:30;1.40;;;0.97;;
38529;SDS011;24301;54.332;48.386;2022-10-30T07:51:06;0.90;;;0.90;;
38529;SDS011;24301;54.332;48.386;2022-10-30T07:53:32;1.60;;;1.43;;
38529;SDS011;24301;54.332;48.386;2022-10-30T07:55:59;2.90;;;1.33;;
38529;SDS011;24301;54.332;48.386;2022-10-30T07:58:54;1.20;;;1.10;;
38529;SDS011;24301;54.332;48.386;2022-10-30T08:01:38;2.47;;;1.20;;
38529;SDS011;24301;54.332;48.386;2022-10-30T08:04:29;2.13;;;1.10;;
38529;SDS011;24301;54.332;48.386;2022-10-30T08:07:03;1.57;;;1.40;;
38529;SDS011;24301;54.332;48.386;2022-10-30T08:09:29;1.50;;;1.37;;
38529;SDS011;24301;54.332;48.386;2022-10-30T08:11:55;1.77;;;1.07;;
38529;SDS011;24301;54.332;48.386;2022-10-30T08:14:21;1.93;;;1.23;;
38529;SDS011;24301;54.332;48.386;2022-10-30T08:16:47;0.97;;;0.90;;
38529;SDS011;24301;54.332;48.386;2022-10-30T08:19:13;1.17;;;1.07;;
38529;SDS011;24301;54.332;48.386;2022-10-30T08:21:40;1.70;;;1.30;;
38529;SDS011;24301;54.332;48.386;2022-10-30T08:24:14;1.43;;;1.20;;
38529;SDS011;24301;54.332;48.386;2022-10-30T08:26:44;2.80;;;1.40;;
38529;SDS011;24301;54.332;48.386;2022-10-30T08:29:11;1.23;;;1.13;;
38529;SDS011;24301;54.332;48.386;2022-10-30T08:31:37;1.50;;;1.40;;
38529;SDS011;24301;54.332;48.386;2022-10-30T08:34:22;1.87;;;1.47;;
38529;SDS011;24301;54.332;48.386;2022-10-30T08:36:56;4.53;;;3.33;;
38529;SDS011;24301;54.332;48.386;2022-10-30T08:39:23;2.87;;;1.93;;
38529;SDS011;24301;54.332;48.386;2022-10-30T08:42:16;3.53;;;1.70;;
38529;SDS011;24301;54.332;48.386;2022-10-30T08:44:43;2.17;;;1.43;;
38529;SDS011;24301;54.332;48.386;2022-10-30T08:47:29;1.50;;;1.37;;
38529;SDS011;24301;54.332;48.386;2022-10-30T08:49:55;2.00;;;1.57;;
38529;SDS011;24301;54.332;48.386;2022-10-30T08:52:25;2.53;;;1.63;;
38529;SDS011;24301;54.332;48.386;2022-10-30T08:54:54;3.70;;;2.43;;
38529;SDS011;24301;54.332;48.386;2022-10-30T08:57:22;2.43;;;1.83;;
38529;SDS011;24301;54.332;48.386;2022-10-30T08:59:49;2.60;;;1.93;;
38529;SDS011;24301;54.332;48.386;2022-10-30T09:02:35;2.63;;;2.00;;
38529;SDS011;24301;54.332;48.386;2022-10-30T09:05:22;2.13;;;1.60;;
38529;SDS011;24301;54.332;48.386;2022-10-30T09:08:26;2.72;;;1.80;;
38529;SDS011;24301;54.332;48.386;2022-10-30T09:11:13;3.30;;;2.47;;
38529;SDS011;24301;54.332;48.386;2022-10-30T09:13:40;3.20;;;2.50;;
38529;SDS011;24301;54.332;48.386;2022-10-30T09:16:06;3.07;;;2.27;;
38529;SDS011;24301;54.332;48.386;2022-10-30T09:18:35;4.17;;;3.00;;
38529;SDS011;24301;54.332;48.386;2022-10-30T09:21:01;2.83;;;2.40;;
38529;SDS011;24301;54.332;48.386;2022-10-30T09:23:30;3.73;;;2.10;;
38529;SDS011;24301;54.332;48.386;2022-10-30T09:26:25;4.00;;;2.40;;
38529;SDS011;24301;54.332;48.386;2022-10-30T09:29:00;2.67;;;2.00;;
38529;SDS011;24301;54.332;48.386;2022-10-30T09:31:55;3.57;;;2.03;;
38529;SDS011;24301;54.332;48.386;2022-10-30T09:34:23;2.60;;;1.53;;
38529;SDS011;24301;54.332;48.386;2022-10-30T09:37:09;2.13;;;1.80;;
38529;SDS011;24301;54.332;48.386;2022-10-30T09:39:37;1.50;;;1.40;;
38529;SDS011;24301;54.332;48.386;2022-10-30T09:42:46;2.40;;;1.80;;
38529;SDS011;24301;54.332;48.386;2022-10-30T09:45:17;3.07;;;1.33;;
38529;SDS011;24301;54.332;48.386;2022-10-30T09:54:01;2.43;;;1.83;;
38529;SDS011;24301;54.332;48.386;2022-10-30T09:57:10;2.50;;;1.80;;
38529;SDS011;24301;54.332;48.386;2022-10-30T10:00:18;2.37;;;1.83;;
38529;SDS011;24301;54.332;48.386;2022-10-30T10:02:55;2.33;;;1.70;;
38529;SDS011;24301;54.332;48.386;2022-10-30T10:06:03;2.10;;;1.40;;
38529;SDS011;24301;54.332;48.386;2022-10-30T10:09:00;3.30;;;1.90;;
38529;SDS011;24301;54.332;48.386;2022-10-30T10:12:10;1.53;;;1.43;;
38529;SDS011;24301;54.332;48.386;2022-10-30T10:14:43;1.90;;;1.80;;
38529;SDS011;24301;54.332;48.386;2022-10-30T10:17:13;3.07;;;2.17;;
38529;SDS011;24301;54.332;48.386;2022-10-30T10:19:48;2.03;;;1.63;;
38529;SDS011;24301;54.332;48.386;2022-10-30T10:22:39;1.43;;;1.30;;
38529;SDS011;24301;54.332;48.386;2022-10-30T10:25:13;2.73;;;1.93;;
38529;SDS011;24301;54.332;48.386;2022-10-30T10:41:46;2.07;;;1.40;;
38529;SDS011;24301;54.332;48.386;2022-10-30T10:44:37;1.70;;;1.47;;
38529;SDS011;24301;54.332;48.386;2022-10-30T10:49:55;4.07;;;2.47;;
38529;SDS011;24301;54.332;48.386;2022-10-30T10:52:48;1.13;;;0.93;;
38529;SDS011;24301;54.332;48.386;2022-10-30T10:55:19;1.30;;;1.20;;
38529;SDS011;24301;54.332;48.386;2022-10-30T10:57:49;4.03;;;1.23;;
38529;SDS011;24301;54.332;48.386;2022-10-30T11:00:19;1.67;;;1.40;;
38529;SDS011;24301;54.332;48.386;2022-10-30T11:03:02;1.53;;;1.43;;
38529;SDS011;24301;54.332;48.386;2022-10-30T11:05:55;1.63;;;1.53;;
38529;SDS011;24301;54.332;48.386;2022-10-30T11:09:13;1.80;;;1.50;;
38529;SDS011;24301;54.332;48.386;2022-10-30T11:11:45;1.40;;;1.30;;
38529;SDS011;24301;54.332;48.386;2022-10-30T11:14:27;1.50;;;1.40;;
38529;SDS011;24301;54.332;48.386;2022-10-30T11:17:12;2.43;;;1.80;;
38529;SDS011;24301;54.332;48.386;2022-10-30T11:20:20;1.90;;;1.50;;
38529;SDS011;24301;54.332;48.386;2022-10-30T11:22:52;4.30;;;1.50;;
38529;SDS011;24301;54.332;48.386;2022-10-30T11:25:22;1.60;;;1.13;;
38529;SDS011;24301;54.332;48.386;2022-10-30T11:27:53;1.10;;;1.00;;
38529;SDS011;24301;54.332;48.386;2022-10-30T11:30:25;2.37;;;1.40;;
38529;SDS011;24301;54.332;48.386;2022-10-30T11:32:56;1.53;;;1.43;;
38529;SDS011;24301;54.332;48.386;2022-10-30T11:35:24;2.40;;;1.50;;
38529;SDS011;24301;54.332;48.386;2022-10-30T11:37:51;1.90;;;1.67;;
38529;SDS011;24301;54.332;48.386;2022-10-30T11:40:38;3.17;;;2.70;;
38529;SDS011;24301;54.332;48.386;2022-10-30T11:43:10;3.83;;;2.10;;
38529;SDS011;24301;54.332;48.386;2022-10-30T11:45:42;2.33;;;1.83;;
38529;SDS011;24301;54.332;48.386;2022-10-30T11:48:20;2.27;;;1.67;;
38529;SDS011;24301;54.332;48.386;2022-10-30T11:50:54;1.98;;;1.42;;
38529;SDS011;24301;54.332;48.386;2022-10-30T11:53:29;1.30;;;1.20;;
38529;SDS011;24301;54.332;48.386;2022-10-30T11:56:14;2.03;;;1.70;;
38529;SDS011;24301;54.332;48.386;2022-10-30T11:58:44;1.50;;;1.30;;
38529;SDS011;24301;54.332;48.386;2022-10-30T12:01:21;2.00;;;1.73;;
38529;SDS011;24301;54.332;48.386;2022-10-30T12:03:47;2.03;;;1.50;;
38529;SDS011;24301;54.332;48.386;2022-10-30T12:06:17;1.50;;;1.33;;
38529;SDS011;24301;54.332;48.386;2022-10-30T12:09:12;1.77;;;1.43;;
38529;SDS011;24301;54.332;48.386;2022-10-30T12:11:44;2.27;;;1.30;;
38529;SDS011;24301;54.332;48.386;2022-10-30T12:14:15;1.37;;;1.27;;
38529;SDS011;24301;54.332;48.386;2022-10-30T12:16:52;1.67;;;1.57;;
38529;SDS011;24301;54.332;48.386;2022-10-30T12:19:23;1.50;;;1.40;;
38529;SDS011;24301;54.332;48.386;2022-10-30T12:21:51;1.93;;;1.70;;
38529;SDS011;24301;54.332;48.386;2022-10-30T12:24:20;2.83;;;1.67;;
38529;SDS011;24301;54.332;48.386;2022-10-30T12:27:02;1.73;;;1.60;;
38529;SDS011;24301;54.332;48.386;2022-10-30T12:29:36;2.10;;;1.90;;
38529;SDS011;24301;54.332;48.386;2022-10-30T12:32:24;1.42;;;1.27;;
38529;SDS011;24301;54.332;48.386;2022-10-30T12:38:06;4.27;;;1.70;;
38529;SDS011;24301;54.332;48.386;2022-10-30T12:46:31;2.47;;;1.80;;
38529;SDS011;24301;54.332;48.386;2022-10-30T12:52:16;2.67;;;2.23;;
38529;SDS011;24301;54.332;48.386;2022-10-30T12:57:48;2.73;;;2.33;;
38529;SDS011;24301;54.332;48.386;2022-10-30T13:00:22;2.30;;;2.07;;
38529;SDS011;24301;54.332;48.386;2022-10-30T13:08:08;3.07;;;2.47;;
38529;SDS011;24301;54.332;48.386;2022-10-30T13:10:57;4.27;;;2.80;;
38529;SDS011;24301;54.332;48.386;2022-10-30T13:13:29;5.67;;;3.93;;
38529;SDS011;24301;54.332;48.386;2022-10-30T13:16:01;5.47;;;3.58;;
38529;SDS011;24301;54.332;48.386;2022-10-30T13:18:31;3.77;;;2.60;;
38529;SDS011;24301;54.332;48.386;2022-10-30T13:23:34;2.97;;;2.30;;
38529;SDS011;24301;54.332;48.386;2022-10-30T13:26:21;4.40;;;3.57;;
38529;SDS011;24301;54.332;48.386;2022-10-30T13:29:15;5.77;;;3.73;;
38529;SDS011;24301;54.332;48.386;2022-10-30T13:37:25;6.30;;;3.30;;
38529;SDS011;24301;54.332;48.386;2022-10-30T13:40:01;3.77;;;2.80;;
38529;SDS011;24301;54.332;48.386;2022-10-30T13:45:25;2.92;;;2.63;;
38529;SDS011;24301;54.332;48.386;2022-10-30T13:48:10;3.63;;;3.22;;
38529;SDS011;24301;54.332;48.386;2022-10-30T13:51:20;4.33;;;3.53;;
38529;SDS011;24301;54.332;48.386;2022-10-30T13:57:02;5.00;;;3.23;;
38529;SDS011;24301;54.332;48.386;2022-10-30T14:02:41;4.10;;;3.70;;
38529;SDS011;24301;54.332;48.386;2022-10-30T14:13:53;4.57;;;3.27;;
38529;SDS011;24301;54.332;48.386;2022-10-30T14:16:40;4.77;;;3.47;;
38529;SDS011;24301;54.332;48.386;2022-10-30T14:19:13;4.50;;;3.30;;
38529;SDS011;24301;54.332;48.386;2022-10-30T14:24:19;3.47;;;3.13;;
38529;SDS011;24301;54.332;48.386;2022-10-30T14:26:56;3.73;;;3.13;;
38529;SDS011;24301;54.332;48.386;2022-10-30T14:29:44;4.40;;;3.60;;
38529;SDS011;24301;54.332;48.386;2022-10-30T14:34:59;5.20;;;3.57;;
38529;SDS011;24301;54.332;48.386;2022-10-30T14:39:55;5.27;;;4.17;;
38529;SDS011;24301;54.332;48.386;2022-10-30T14:53:33;4.97;;;3.00;;
38529;SDS011;24301;54.332;48.386;2022-10-30T15:02:18;3.83;;;3.17;;
38529;SDS011;24301;54.332;48.386;2022-10-30T15:04:56;2.80;;;2.57;;
38529;SDS011;24301;54.332;48.386;2022-10-30T15:07:42;4.43;;;2.80;;
38529;SDS011;24301;54.332;48.386;2022-10-30T15:10:32;4.13;;;3.00;;
38529;SDS011;24301;54.332;48.386;2022-10-30T15:16:00;4.23;;;3.30;;
38529;SDS011;24301;54.332;48.386;2022-10-30T15:18:28;5.87;;;3.87;;
38529;SDS011;24301;54.332;48.386;2022-10-30T15:20:55;5.17;;;4.37;;
38529;SDS011;24301;54.332;48.386;2022-10-30T15:23:28;4.43;;;3.33;;
38529;SDS011;24301;54.332;48.386;2022-10-30T15:25:58;6.27;;;3.33;;
38529;SDS011;24301;54.332;48.386;2022-10-30T15:28:30;5.70;;;3.77;;
38529;SDS011;24301;54.332;48.386;2022-10-30T15:33:48;4.50;;;3.37;;
38529;SDS011;24301;54.332;48.386;2022-10-30T15:36:22;4.00;;;3.00;;
38529;SDS011;24301;54.332;48.386;2022-10-30T15:41:28;7.90;;;4.25;;
38529;SDS011;24301;54.332;48.386;2022-10-30T15:43:54;4.80;;;4.17;;
38529;SDS011;24301;54.332;48.386;2022-10-30T15:46:22;5.60;;;3.93;;
38529;SDS011;24301;54.332;48.386;2022-10-30T15:48:48;7.33;;;4.13;;
38529;SDS011;24301;54.332;48.386;2022-10-30T15:51:16;6.27;;;4.87;;
38529;SDS011;24301;54.332;48.386;2022-10-30T15:53:46;6.97;;;4.53;;
38529;SDS011;24301;54.332;48.386;2022-10-30T15:56:29;5.33;;;4.27;;
38529;SDS011;24301;54.332;48.386;2022-10-30T15:59:14;4.53;;;3.80;;
38529;SDS011;24301;54.332;48.386;2022-10-30T16:01:46;5.83;;;3.80;;
38529;SDS011;24301;54.332;48.386;2022-10-30T16:04:23;4.97;;;4.47;;
38529;SDS011;24301;54.332;48.386;2022-10-30T16:06:52;4.67;;;3.73;;
38529;SDS011;24301;54.332;48.386;2022-10-30T16:09:20;5.30;;;3.87;;
38529;SDS011;24301;54.332;48.386;2022-10-30T16:11:47;5.43;;;3.87;;
38529;SDS011;24301;54.332;48.386;2022-10-30T16:14:16;6.17;;;5.13;;
38529;SDS011;24301;54.332;48.386;2022-10-30T16:16:46;7.07;;;4.50;;
38529;SDS011;24301;54.332;48.386;2022-10-30T16:19:25;6.10;;;4.10;;
38529;SDS011;24301;54.332;48.386;2022-10-30T16:21:55;6.97;;;4.87;;
38529;SDS011;24301;54.332;48.386;2022-10-30T16:24:32;6.23;;;4.43;;
38529;SDS011;24301;54.332;48.386;2022-10-30T16:27:21;7.97;;;6.23;;
38529;SDS011;24301;54.332;48.386;2022-10-30T16:29:50;5.93;;;4.67;;
38529;SDS011;24301;54.332;48.386;2022-10-30T16:32:19;6.80;;;5.13;;
38529;SDS011;24301;54.332;48.386;2022-10-30T16:34:48;8.23;;;5.30;;
38529;SDS011;24301;54.332;48.386;2022-10-30T16:37:21;6.07;;;4.60;;
38529;SDS011;24301;54.332;48.386;2022-10-30T16:39:52;5.27;;;3.50;;
38529;SDS011;24301;54.332;48.386;2022-10-30T16:42:24;4.97;;;3.63;;
38529;SDS011;24301;54.332;48.386;2022-10-30T16:47:41;6.87;;;3.37;;
38529;SDS011;24301;54.332;48.386;2022-10-30T16:50:16;2.43;;;2.20;;
38529;SDS011;24301;54.332;48.386;2022-10-30T16:52:44;4.37;;;3.03;;
38529;SDS011;24301;54.332;48.386;2022-10-30T16:55:14;4.00;;;2.70;;
38529;SDS011;24301;54.332;48.386;2022-10-30T16:57:49;6.47;;;3.23;;
38529;SDS011;24301;54.332;48.386;2022-10-30T17:00:21;4.70;;;3.03;;
38529;SDS011;24301;54.332;48.386;2022-10-30T17:02:49;5.73;;;3.43;;
38529;SDS011;24301;54.332;48.386;2022-10-30T17:07:56;5.93;;;4.00;;
38529;SDS011;24301;54.332;48.386;2022-10-30T17:13:56;4.47;;;3.00;;
38529;SDS011;24301;54.332;48.386;2022-10-30T17:16:12;3.87;;;2.73;;
38529;SDS011;24301;54.332;48.386;2022-10-30T17:18:40;3.27;;;2.17;;
38529;SDS011;24301;54.332;48.386;2022-10-30T17:21:08;4.43;;;3.10;;
38529;SDS011;24301;54.332;48.386;2022-10-30T17:23:43;3.63;;;2.03;;
38529;SDS011;24301;54.332;48.386;2022-10-30T17:26:11;3.77;;;2.27;;
38529;SDS011;24301;54.332;48.386;2022-10-30T17:28:38;3.27;;;2.33;;
38529;SDS011;24301;54.332;48.386;2022-10-30T17:33:46;1.93;;;1.73;;
38529;SDS011;24301;54.332;48.386;2022-10-30T17:36:46;7.00;;;3.10;;